sensor_id;sensor_type;location;lat;lon;timestamp;pressure;altitude;pressure_sealevel;temperature;humidity
70256;BME280;57669;52.624;-1.688;2022-11-15T00:02:04;99623.61;;;8.51;57.94
70256;BME280;57669;52.624;-1.688;2022-11-15T00:04:30;99624.68;;;7.88;59.06
70256;BME280;57669;52.624;-1.688;2022-11-15T00:06:55;99621.22;;;8.42;57.70
70256;BME280;57669;52.624;-1.688;2022-11-15T00:11:47;99620.11;;;7.76;58.64
70256;BME280;57669;52.624;-1.688;2022-11-15T00:14:12;99616.17;;;7.87;58.27
70256;BME280;57669;52.624;-1.688;2022-11-15T00:16:41;99611.39;;;7.97;58.27
70256;BME280;57669;52.624;-1.688;2022-11-15T00:19:03;99609.26;;;8.04;58.16
70256;BME280;57669;52.624;-1.688;2022-11-15T00:21:29;99606.64;;;8.43;56.92
70256;BME280;57669;52.624;-1.688;2022-11-15T00:23:55;99606.13;;;8.28;57.15
70256;BME280;57669;52.624;-1.688;2022-11-15T00:26:20;99593.32;;;8.55;56.83
70256;BME280;57669;52.624;-1.688;2022-11-15T00:28:46;99585.12;;;8.27;57.59
70256;BME280;57669;52.624;-1.688;2022-11-15T00:31:13;99580.26;;;7.82;58.70
70256;BME280;57669;52.624;-1.688;2022-11-15T00:33:38;99574.30;;;8.05;59.49
70256;BME280;57669;52.624;-1.688;2022-11-15T00:36:06;99572.32;;;8.47;58.63
70256;BME280;57669;52.624;-1.688;2022-11-15T00:38:31;99567.72;;;7.30;60.21
70256;BME280;57669;52.624;-1.688;2022-11-15T00:40:55;99558.91;;;7.59;60.06
70256;BME280;57669;52.624;-1.688;2022-11-15T00:43:21;99551.65;;;8.01;59.57
70256;BME280;57669;52.624;-1.688;2022-11-15T00:45:47;99551.78;;;7.80;60.71
70256;BME280;57669;52.624;-1.688;2022-11-15T00:48:12;99539.32;;;6.96;62.79
70256;BME280;57669;52.624;-1.688;2022-11-15T00:50:38;99535.35;;;7.75;60.51
70256;BME280;57669;52.624;-1.688;2022-11-15T00:53:04;99527.87;;;7.55;60.95
70256;BME280;57669;52.624;-1.688;2022-11-15T00:55:30;99523.00;;;7.42;60.11
70256;BME280;57669;52.624;-1.688;2022-11-15T00:57:56;99518.89;;;7.45;60.15
70256;BME280;57669;52.624;-1.688;2022-11-15T01:00:22;99518.05;;;7.78;59.43
70256;BME280;57669;52.624;-1.688;2022-11-15T01:02:47;99515.56;;;8.17;59.28
70256;BME280;57669;52.624;-1.688;2022-11-15T01:05:13;99510.08;;;7.91;59.61
70256;BME280;57669;52.624;-1.688;2022-11-15T01:07:39;99506.50;;;8.34;58.27
70256;BME280;57669;52.624;-1.688;2022-11-15T01:10:05;99495.79;;;7.47;60.28
70256;BME280;57669;52.624;-1.688;2022-11-15T01:12:30;99495.11;;;7.45;60.56
70256;BME280;57669;52.624;-1.688;2022-11-15T01:17:22;99479.43;;;8.14;59.23
70256;BME280;57669;52.624;-1.688;2022-11-15T01:19:47;99478.70;;;8.02;60.71
70256;BME280;57669;52.624;-1.688;2022-11-15T01:22:16;99470.54;;;7.80;60.52
70256;BME280;57669;52.624;-1.688;2022-11-15T01:24:39;99467.73;;;7.84;59.98
70256;BME280;57669;52.624;-1.688;2022-11-15T01:27:05;99473.33;;;7.35;61.42
70256;BME280;57669;52.624;-1.688;2022-11-15T01:29:30;99468.74;;;7.05;62.86
70256;BME280;57669;52.624;-1.688;2022-11-15T01:31:56;99467.52;;;7.35;62.24
70256;BME280;57669;52.624;-1.688;2022-11-15T01:34:22;99455.43;;;6.60;63.37
70256;BME280;57669;52.624;-1.688;2022-11-15T01:36:47;99450.91;;;6.43;64.38
70256;BME280;57669;52.624;-1.688;2022-11-15T01:39:13;99450.65;;;7.35;61.99
70256;BME280;57669;52.624;-1.688;2022-11-15T01:41:39;99449.14;;;7.49;60.67
70256;BME280;57669;52.624;-1.688;2022-11-15T01:46:33;99434.90;;;6.87;62.40
70256;BME280;57669;52.624;-1.688;2022-11-15T01:48:59;99430.92;;;7.21;62.02
70256;BME280;57669;52.624;-1.688;2022-11-15T01:51:25;99420.83;;;7.63;61.39
70256;BME280;57669;52.624;-1.688;2022-11-15T01:53:50;99412.45;;;7.19;61.55
70256;BME280;57669;52.624;-1.688;2022-11-15T01:56:16;99407.43;;;7.66;60.06
70256;BME280;57669;52.624;-1.688;2022-11-15T01:58:40;99401.35;;;8.59;58.52
70256;BME280;57669;52.624;-1.688;2022-11-15T02:01:05;99396.91;;;8.35;57.77
70256;BME280;57669;52.624;-1.688;2022-11-15T02:03:34;99390.64;;;7.76;59.15
70256;BME280;57669;52.624;-1.688;2022-11-15T02:05:57;99382.73;;;7.95;58.73
70256;BME280;57669;52.624;-1.688;2022-11-15T02:08:22;99377.13;;;8.47;57.61
70256;BME280;57669;52.624;-1.688;2022-11-15T02:10:48;99365.27;;;7.94;58.86
70256;BME280;57669;52.624;-1.688;2022-11-15T02:13:14;99364.96;;;8.32;58.04
70256;BME280;57669;52.624;-1.688;2022-11-15T02:15:43;99364.25;;;8.30;57.86
70256;BME280;57669;52.624;-1.688;2022-11-15T02:18:11;99361.37;;;8.54;58.61
70256;BME280;57669;52.624;-1.688;2022-11-15T02:20:40;99358.77;;;8.49;58.29
70256;BME280;57669;52.624;-1.688;2022-11-15T02:25:37;99340.53;;;8.67;57.08
70256;BME280;57669;52.624;-1.688;2022-11-15T02:27:59;99342.30;;;8.31;58.04
70256;BME280;57669;52.624;-1.688;2022-11-15T02:30:21;99327.45;;;8.55;57.27
70256;BME280;57669;52.624;-1.688;2022-11-15T02:32:43;99321.03;;;8.62;56.69
70256;BME280;57669;52.624;-1.688;2022-11-15T02:35:14;99308.41;;;8.48;58.01
70256;BME280;57669;52.624;-1.688;2022-11-15T02:37:36;99296.85;;;8.98;57.04
70256;BME280;57669;52.624;-1.688;2022-11-15T02:40:00;99298.13;;;8.39;58.27
70256;BME280;57669;52.624;-1.688;2022-11-15T02:42:25;99285.95;;;8.81;57.49
70256;BME280;57669;52.624;-1.688;2022-11-15T02:44:49;99278.95;;;8.44;58.78
70256;BME280;57669;52.624;-1.688;2022-11-15T02:47:16;99273.67;;;8.61;59.05
70256;BME280;57669;52.624;-1.688;2022-11-15T02:49:41;99270.63;;;8.19;59.06
70256;BME280;57669;52.624;-1.688;2022-11-15T02:52:04;99265.52;;;8.11;59.33
70256;BME280;57669;52.624;-1.688;2022-11-15T02:54:31;99258.15;;;7.45;61.22
70256;BME280;57669;52.624;-1.688;2022-11-15T02:56:58;99248.89;;;8.23;59.79
70256;BME280;57669;52.624;-1.688;2022-11-15T02:59:35;99243.44;;;7.96;60.48
70256;BME280;57669;52.624;-1.688;2022-11-15T03:01:56;99243.78;;;7.92;61.60
70256;BME280;57669;52.624;-1.688;2022-11-15T03:04:21;99244.75;;;7.24;63.39
70256;BME280;57669;52.624;-1.688;2022-11-15T03:06:44;99243.04;;;7.47;61.75
70256;BME280;57669;52.624;-1.688;2022-11-15T03:09:07;99232.78;;;7.37;62.10
70256;BME280;57669;52.624;-1.688;2022-11-15T03:11:32;99221.66;;;8.25;60.77
70256;BME280;57669;52.624;-1.688;2022-11-15T03:13:58;99223.71;;;7.71;62.16
70256;BME280;57669;52.624;-1.688;2022-11-15T03:16:26;99214.34;;;7.71;61.90
70256;BME280;57669;52.624;-1.688;2022-11-15T03:18:51;99210.04;;;8.19;61.62
70256;BME280;57669;52.624;-1.688;2022-11-15T03:21:14;99205.99;;;7.81;61.90
70256;BME280;57669;52.624;-1.688;2022-11-15T03:23:39;99196.27;;;7.81;62.08
70256;BME280;57669;52.624;-1.688;2022-11-15T03:26:07;99194.16;;;7.66;62.52
70256;BME280;57669;52.624;-1.688;2022-11-15T03:28:34;99187.11;;;7.88;61.76
70256;BME280;57669;52.624;-1.688;2022-11-15T03:30:56;99185.54;;;7.48;62.31
70256;BME280;57669;52.624;-1.688;2022-11-15T03:33:22;99189.05;;;7.48;63.52
70256;BME280;57669;52.624;-1.688;2022-11-15T03:35:48;99189.98;;;7.96;62.85
70256;BME280;57669;52.624;-1.688;2022-11-15T03:38:17;99187.47;;;7.79;62.88
70256;BME280;57669;52.624;-1.688;2022-11-15T03:40:40;99181.21;;;7.58;63.47
70256;BME280;57669;52.624;-1.688;2022-11-15T03:43:08;99178.33;;;7.53;64.12
70256;BME280;57669;52.624;-1.688;2022-11-15T03:48:00;99175.61;;;8.16;63.25
70256;BME280;57669;52.624;-1.688;2022-11-15T03:50:22;99166.48;;;8.19;62.22
70256;BME280;57669;52.624;-1.688;2022-11-15T03:52:48;99157.30;;;8.68;61.05
70256;BME280;57669;52.624;-1.688;2022-11-15T03:55:16;99148.38;;;8.13;61.93
70256;BME280;57669;52.624;-1.688;2022-11-15T03:57:38;99137.06;;;8.29;61.47
70256;BME280;57669;52.624;-1.688;2022-11-15T04:00:05;99138.96;;;8.68;60.75
70256;BME280;57669;52.624;-1.688;2022-11-15T04:02:29;99131.85;;;8.48;61.85
70256;BME280;57669;52.624;-1.688;2022-11-15T04:04:54;99134.21;;;8.00;63.49
70256;BME280;57669;52.624;-1.688;2022-11-15T04:07:20;99127.22;;;8.31;63.28
70256;BME280;57669;52.624;-1.688;2022-11-15T04:09:45;99127.24;;;7.94;64.70
70256;BME280;57669;52.624;-1.688;2022-11-15T04:12:11;99123.67;;;8.06;64.21
70256;BME280;57669;52.624;-1.688;2022-11-15T04:14:37;99126.28;;;8.12;65.14
70256;BME280;57669;52.624;-1.688;2022-11-15T04:17:02;99123.51;;;7.64;65.78
70256;BME280;57669;52.624;-1.688;2022-11-15T04:19:28;99122.39;;;7.53;67.17
70256;BME280;57669;52.624;-1.688;2022-11-15T04:21:54;99118.82;;;8.04;65.76
70256;BME280;57669;52.624;-1.688;2022-11-15T04:24:20;99105.89;;;8.47;65.10
70256;BME280;57669;52.624;-1.688;2022-11-15T04:26:46;99098.92;;;7.65;67.58
70256;BME280;57669;52.624;-1.688;2022-11-15T04:29:11;99091.88;;;7.89;67.00
70256;BME280;57669;52.624;-1.688;2022-11-15T04:31:37;99089.07;;;8.01;66.60
70256;BME280;57669;52.624;-1.688;2022-11-15T04:34:03;99085.98;;;7.90;67.46
70256;BME280;57669;52.624;-1.688;2022-11-15T04:36:28;99086.30;;;8.02;67.54
70256;BME280;57669;52.624;-1.688;2022-11-15T04:38:54;99082.94;;;7.78;68.77
70256;BME280;57669;52.624;-1.688;2022-11-15T04:41:20;99079.79;;;7.29;70.06
70256;BME280;57669;52.624;-1.688;2022-11-15T04:43:45;99071.37;;;7.67;69.31
70256;BME280;57669;52.624;-1.688;2022-11-15T04:46:11;99065.54;;;8.17;67.92
70256;BME280;57669;52.624;-1.688;2022-11-15T04:48:36;99062.64;;;7.61;68.95
70256;BME280;57669;52.624;-1.688;2022-11-15T04:51:02;99055.55;;;7.49;68.64
70256;BME280;57669;52.624;-1.688;2022-11-15T04:53:28;99050.30;;;8.08;68.47
70256;BME280;57669;52.624;-1.688;2022-11-15T04:55:54;99038.54;;;8.05;67.27
70256;BME280;57669;52.624;-1.688;2022-11-15T04:58:19;99028.89;;;7.81;68.28
70256;BME280;57669;52.624;-1.688;2022-11-15T05:00:45;99030.54;;;7.84;68.46
70256;BME280;57669;52.624;-1.688;2022-11-15T05:03:11;99030.94;;;7.90;68.47
70256;BME280;57669;52.624;-1.688;2022-11-15T05:05:37;99024.74;;;8.49;67.48
70256;BME280;57669;52.624;-1.688;2022-11-15T05:08:02;99013.92;;;8.60;67.33
70256;BME280;57669;52.624;-1.688;2022-11-15T05:10:27;99009.56;;;8.06;69.60
70256;BME280;57669;52.624;-1.688;2022-11-15T05:12:52;99006.98;;;7.81;70.90
70256;BME280;57669;52.624;-1.688;2022-11-15T05:15:18;98997.74;;;7.81;69.95
70256;BME280;57669;52.624;-1.688;2022-11-15T05:17:44;98991.90;;;7.80;69.87
70256;BME280;57669;52.624;-1.688;2022-11-15T05:20:11;98982.73;;;8.04;69.80
70256;BME280;57669;52.624;-1.688;2022-11-15T05:22:35;98982.33;;;7.75;69.69
70256;BME280;57669;52.624;-1.688;2022-11-15T05:25:00;98970.88;;;7.90;69.26
70256;BME280;57669;52.624;-1.688;2022-11-15T05:27:26;98974.03;;;7.84;68.82
70256;BME280;57669;52.624;-1.688;2022-11-15T05:29:52;98966.85;;;8.05;68.83
70256;BME280;57669;52.624;-1.688;2022-11-15T05:32:18;98963.74;;;8.34;69.44
70256;BME280;57669;52.624;-1.688;2022-11-15T05:34:43;98963.65;;;7.69;70.54
70256;BME280;57669;52.624;-1.688;2022-11-15T05:37:09;98956.98;;;7.77;71.34
70256;BME280;57669;52.624;-1.688;2022-11-15T05:39:35;98955.20;;;7.69;70.73
70256;BME280;57669;52.624;-1.688;2022-11-15T05:42:04;98945.00;;;7.95;69.89
70256;BME280;57669;52.624;-1.688;2022-11-15T05:44:27;98941.99;;;8.00;69.15
70256;BME280;57669;52.624;-1.688;2022-11-15T05:46:52;98943.80;;;8.60;67.63
70256;BME280;57669;52.624;-1.688;2022-11-15T05:49:20;98940.76;;;8.00;70.00
70256;BME280;57669;52.624;-1.688;2022-11-15T05:51:46;98938.72;;;8.25;70.35
70256;BME280;57669;52.624;-1.688;2022-11-15T05:54:10;98927.18;;;7.99;70.53
70256;BME280;57669;52.624;-1.688;2022-11-15T05:56:34;98921.66;;;8.38;69.91
70256;BME280;57669;52.624;-1.688;2022-11-15T05:59:01;98919.72;;;8.18;69.51
70256;BME280;57669;52.624;-1.688;2022-11-15T06:01:26;98913.29;;;8.22;69.44
70256;BME280;57669;52.624;-1.688;2022-11-15T06:03:52;98908.65;;;8.46;68.87
70256;BME280;57669;52.624;-1.688;2022-11-15T06:06:17;98905.82;;;7.96;69.45
70256;BME280;57669;52.624;-1.688;2022-11-15T06:08:43;98897.85;;;8.42;70.16
70256;BME280;57669;52.624;-1.688;2022-11-15T06:11:09;98894.59;;;8.29;70.08
70256;BME280;57669;52.624;-1.688;2022-11-15T06:13:36;98893.34;;;8.03;71.18
70256;BME280;57669;52.624;-1.688;2022-11-15T06:16:00;98892.56;;;7.71;71.83
70256;BME280;57669;52.624;-1.688;2022-11-15T06:18:26;98887.86;;;8.15;71.21
70256;BME280;57669;52.624;-1.688;2022-11-15T06:20:52;98885.35;;;7.83;72.40
70256;BME280;57669;52.624;-1.688;2022-11-15T06:23:17;98883.14;;;7.68;72.38
70256;BME280;57669;52.624;-1.688;2022-11-15T06:25:42;98879.80;;;8.32;70.88
70256;BME280;57669;52.624;-1.688;2022-11-15T06:28:08;98874.55;;;8.36;71.07
70256;BME280;57669;52.624;-1.688;2022-11-15T06:30:34;98874.36;;;8.27;71.09
70256;BME280;57669;52.624;-1.688;2022-11-15T06:33:01;98873.36;;;8.19;71.86
70256;BME280;57669;52.624;-1.688;2022-11-15T06:35:27;98875.62;;;7.77;72.93
70256;BME280;57669;52.624;-1.688;2022-11-15T06:37:51;98871.29;;;7.98;72.85
70256;BME280;57669;52.624;-1.688;2022-11-15T06:40:17;98866.55;;;7.98;72.84
70256;BME280;57669;52.624;-1.688;2022-11-15T06:42:43;98864.29;;;8.18;72.41
70256;BME280;57669;52.624;-1.688;2022-11-15T06:45:09;98862.07;;;8.29;72.26
70256;BME280;57669;52.624;-1.688;2022-11-15T06:47:34;98856.59;;;8.06;72.94
70256;BME280;57669;52.624;-1.688;2022-11-15T06:50:00;98859.59;;;7.89;73.34
70256;BME280;57669;52.624;-1.688;2022-11-15T06:52:26;98849.09;;;8.06;72.46
70256;BME280;57669;52.624;-1.688;2022-11-15T06:54:51;98847.39;;;8.01;72.46
70256;BME280;57669;52.624;-1.688;2022-11-15T06:57:17;98849.90;;;8.19;72.06
70256;BME280;57669;52.624;-1.688;2022-11-15T06:59:43;98849.61;;;8.28;71.30
70256;BME280;57669;52.624;-1.688;2022-11-15T07:02:12;98851.05;;;8.71;71.62
70256;BME280;57669;52.624;-1.688;2022-11-15T07:04:34;98840.40;;;8.49;72.04
70256;BME280;57669;52.624;-1.688;2022-11-15T07:07:00;98840.81;;;7.58;74.25
70256;BME280;57669;52.624;-1.688;2022-11-15T07:09:26;98838.59;;;8.52;72.07
70256;BME280;57669;52.624;-1.688;2022-11-15T07:11:52;98834.30;;;8.21;73.13
70256;BME280;57669;52.624;-1.688;2022-11-15T07:14:18;98830.89;;;8.15;73.89
70256;BME280;57669;52.624;-1.688;2022-11-15T07:16:43;98828.51;;;8.77;71.74
70256;BME280;57669;52.624;-1.688;2022-11-15T07:19:09;98825.02;;;8.62;70.83
70256;BME280;57669;52.624;-1.688;2022-11-15T07:21:35;98823.96;;;8.39;71.99
70256;BME280;57669;52.624;-1.688;2022-11-15T07:24:01;98813.89;;;8.56;72.52
70256;BME280;57669;52.624;-1.688;2022-11-15T07:26:26;98814.28;;;8.63;72.40
70256;BME280;57669;52.624;-1.688;2022-11-15T07:28:52;98819.41;;;8.65;71.26
70256;BME280;57669;52.624;-1.688;2022-11-15T07:31:18;98811.68;;;8.19;72.24
70256;BME280;57669;52.624;-1.688;2022-11-15T07:33:44;98810.79;;;8.63;72.19
70256;BME280;57669;52.624;-1.688;2022-11-15T07:38:35;98805.99;;;8.24;73.69
70256;BME280;57669;52.624;-1.688;2022-11-15T07:41:03;98800.95;;;8.45;72.81
70256;BME280;57669;52.624;-1.688;2022-11-15T07:43:27;98803.98;;;8.87;72.03
70256;BME280;57669;52.624;-1.688;2022-11-15T07:45:53;98799.45;;;8.51;71.71
70256;BME280;57669;52.624;-1.688;2022-11-15T07:48:18;98795.16;;;8.73;71.14
70256;BME280;57669;52.624;-1.688;2022-11-15T07:50:44;98786.42;;;8.40;73.75
70256;BME280;57669;52.624;-1.688;2022-11-15T07:53:10;98785.98;;;7.91;74.46
70256;BME280;57669;52.624;-1.688;2022-11-15T07:55:36;98784.15;;;7.88;74.33
70256;BME280;57669;52.624;-1.688;2022-11-15T07:58:01;98773.95;;;8.45;73.41
70256;BME280;57669;52.624;-1.688;2022-11-15T08:00:27;98777.87;;;8.44;73.63
70256;BME280;57669;52.624;-1.688;2022-11-15T08:02:52;98770.39;;;8.83;71.43
70256;BME280;57669;52.624;-1.688;2022-11-15T08:05:18;98768.23;;;8.60;71.88
70256;BME280;57669;52.624;-1.688;2022-11-15T08:07:44;98766.78;;;8.79;71.51
70256;BME280;57669;52.624;-1.688;2022-11-15T08:10:10;98757.43;;;9.03;70.97
70256;BME280;57669;52.624;-1.688;2022-11-15T08:12:35;98754.20;;;8.73;71.36
70256;BME280;57669;52.624;-1.688;2022-11-15T08:15:01;98743.30;;;8.53;71.78
70256;BME280;57669;52.624;-1.688;2022-11-15T08:17:27;98748.01;;;8.96;71.07
70256;BME280;57669;52.624;-1.688;2022-11-15T08:19:53;98738.37;;;8.53;72.22
70256;BME280;57669;52.624;-1.688;2022-11-15T08:22:19;98732.58;;;8.74;71.81
70256;BME280;57669;52.624;-1.688;2022-11-15T08:24:44;98735.67;;;9.07;72.24
70256;BME280;57669;52.624;-1.688;2022-11-15T08:27:10;98726.81;;;8.73;72.68
70256;BME280;57669;52.624;-1.688;2022-11-15T08:29:36;98708.70;;;9.10;71.03
70256;BME280;57669;52.624;-1.688;2022-11-15T08:32:01;98713.50;;;8.63;72.36
70256;BME280;57669;52.624;-1.688;2022-11-15T08:34:27;98706.20;;;8.74;72.20
70256;BME280;57669;52.624;-1.688;2022-11-15T08:36:53;98703.89;;;8.86;71.67
70256;BME280;57669;52.624;-1.688;2022-11-15T08:39:19;98691.36;;;8.91;71.78
70256;BME280;57669;52.624;-1.688;2022-11-15T08:41:44;98678.73;;;9.38;70.39
70256;BME280;57669;52.624;-1.688;2022-11-15T08:44:10;98687.71;;;9.11;71.86
70256;BME280;57669;52.624;-1.688;2022-11-15T08:46:36;98686.55;;;8.61;72.56
70256;BME280;57669;52.624;-1.688;2022-11-15T08:49:02;98678.99;;;8.70;72.73
70256;BME280;57669;52.624;-1.688;2022-11-15T08:51:27;98676.67;;;8.64;72.42
70256;BME280;57669;52.624;-1.688;2022-11-15T08:53:54;98669.73;;;8.90;72.10
70256;BME280;57669;52.624;-1.688;2022-11-15T08:56:19;98661.45;;;9.45;71.66
70256;BME280;57669;52.624;-1.688;2022-11-15T08:58:45;98658.89;;;8.64;73.48
70256;BME280;57669;52.624;-1.688;2022-11-15T09:01:16;98654.57;;;8.45;74.69
70256;BME280;57669;52.624;-1.688;2022-11-15T09:03:36;98646.63;;;8.21;75.07
70256;BME280;57669;52.624;-1.688;2022-11-15T09:06:02;98638.88;;;8.30;75.51
70256;BME280;57669;52.624;-1.688;2022-11-15T09:08:30;98640.08;;;8.72;74.89
70256;BME280;57669;52.624;-1.688;2022-11-15T09:10:53;98630.18;;;8.46;75.32
70256;BME280;57669;52.624;-1.688;2022-11-15T09:13:19;98625.43;;;8.69;73.33
70256;BME280;57669;52.624;-1.688;2022-11-15T09:15:45;98632.02;;;8.61;73.88
70256;BME280;57669;52.624;-1.688;2022-11-15T09:18:10;98629.55;;;8.45;73.54
70256;BME280;57669;52.624;-1.688;2022-11-15T09:20:36;98626.89;;;8.78;74.04
70256;BME280;57669;52.624;-1.688;2022-11-15T09:23:03;98612.98;;;8.71;74.41
70256;BME280;57669;52.624;-1.688;2022-11-15T09:25:28;98600.19;;;8.83;74.17
70256;BME280;57669;52.624;-1.688;2022-11-15T09:27:54;98595.11;;;8.58;75.06
70256;BME280;57669;52.624;-1.688;2022-11-15T09:30:19;98596.21;;;9.42;73.32
70256;BME280;57669;52.624;-1.688;2022-11-15T09:32:45;98598.54;;;9.45;72.25
70256;BME280;57669;52.624;-1.688;2022-11-15T09:35:10;98590.97;;;8.85;74.52
70256;BME280;57669;52.624;-1.688;2022-11-15T09:37:36;98587.37;;;8.58;73.84
70256;BME280;57669;52.624;-1.688;2022-11-15T09:40:03;98587.33;;;8.67;73.89
70256;BME280;57669;52.624;-1.688;2022-11-15T09:42:39;98577.54;;;8.09;75.48
70256;BME280;57669;52.624;-1.688;2022-11-15T09:45:04;98578.09;;;9.07;74.07
70256;BME280;57669;52.624;-1.688;2022-11-15T09:47:30;98561.23;;;8.80;74.96
70256;BME280;57669;52.624;-1.688;2022-11-15T09:49:45;98563.40;;;9.00;73.72
70256;BME280;57669;52.624;-1.688;2022-11-15T09:52:11;98561.39;;;8.81;74.60
70256;BME280;57669;52.624;-1.688;2022-11-15T09:54:38;98554.83;;;9.08;73.96
70256;BME280;57669;52.624;-1.688;2022-11-15T09:57:09;98555.85;;;8.86;73.62
70256;BME280;57669;52.624;-1.688;2022-11-15T09:59:38;98558.63;;;9.09;73.93
70256;BME280;57669;52.624;-1.688;2022-11-15T10:02:00;98556.49;;;8.58;75.20
70256;BME280;57669;52.624;-1.688;2022-11-15T10:04:20;98560.03;;;9.26;73.87
70256;BME280;57669;52.624;-1.688;2022-11-15T10:06:52;98558.34;;;8.91;74.35
70256;BME280;57669;52.624;-1.688;2022-11-15T10:09:15;98552.19;;;8.82;74.72
70256;BME280;57669;52.624;-1.688;2022-11-15T10:11:37;98552.74;;;8.37;75.76
70256;BME280;57669;52.624;-1.688;2022-11-15T10:14:08;98544.67;;;8.86;73.98
70256;BME280;57669;52.624;-1.688;2022-11-15T10:16:43;98539.90;;;8.81;75.30
70256;BME280;57669;52.624;-1.688;2022-11-15T10:19:00;98536.65;;;8.41;76.80
70256;BME280;57669;52.624;-1.688;2022-11-15T10:21:21;98541.29;;;9.03;74.98
70256;BME280;57669;52.624;-1.688;2022-11-15T10:23:46;98542.00;;;9.07;75.72
70256;BME280;57669;52.624;-1.688;2022-11-15T10:26:15;98542.40;;;8.60;76.08
70256;BME280;57669;52.624;-1.688;2022-11-15T10:28:37;98537.22;;;8.71;76.21
70256;BME280;57669;52.624;-1.688;2022-11-15T10:31:03;98534.84;;;9.21;73.84
70256;BME280;57669;52.624;-1.688;2022-11-15T10:33:31;98540.94;;;8.79;75.51
70256;BME280;57669;52.624;-1.688;2022-11-15T10:38:20;98531.86;;;9.31;74.24
70256;BME280;57669;52.624;-1.688;2022-11-15T10:40:45;98517.97;;;9.20;74.23
70256;BME280;57669;52.624;-1.688;2022-11-15T10:43:15;98516.62;;;9.35;73.88
70256;BME280;57669;52.624;-1.688;2022-11-15T10:45:37;98508.50;;;9.27;73.58
70256;BME280;57669;52.624;-1.688;2022-11-15T10:50:31;98509.55;;;9.23;73.88
70256;BME280;57669;52.624;-1.688;2022-11-15T10:52:54;98497.76;;;9.30;73.09
70256;BME280;57669;52.624;-1.688;2022-11-15T10:55:24;98499.54;;;9.88;72.54
70256;BME280;57669;52.624;-1.688;2022-11-15T10:57:49;98491.91;;;9.42;73.17
70256;BME280;57669;52.624;-1.688;2022-11-15T11:02:38;98476.62;;;9.61;72.45
70256;BME280;57669;52.624;-1.688;2022-11-15T11:05:05;98464.62;;;9.41;72.15
70256;BME280;57669;52.624;-1.688;2022-11-15T11:07:30;98455.11;;;9.95;72.00
70256;BME280;57669;52.624;-1.688;2022-11-15T11:10:00;98455.30;;;10.19;70.82
70256;BME280;57669;52.624;-1.688;2022-11-15T11:12:27;98450.58;;;9.34;73.68
70256;BME280;57669;52.624;-1.688;2022-11-15T11:14:46;98448.24;;;9.44;73.42
70256;BME280;57669;52.624;-1.688;2022-11-15T11:17:16;98440.96;;;9.99;71.73
70256;BME280;57669;52.624;-1.688;2022-11-15T11:19:47;98434.06;;;9.23;73.25
70256;BME280;57669;52.624;-1.688;2022-11-15T11:22:09;98433.27;;;9.35;73.36
70256;BME280;57669;52.624;-1.688;2022-11-15T11:24:34;98428.51;;;9.52;73.33
70256;BME280;57669;52.624;-1.688;2022-11-15T11:27:07;98416.36;;;9.38;73.22
70256;BME280;57669;52.624;-1.688;2022-11-15T11:29:31;98417.85;;;9.29;74.72
70256;BME280;57669;52.624;-1.688;2022-11-15T11:31:51;98412.13;;;9.92;72.08
70256;BME280;57669;52.624;-1.688;2022-11-15T11:34:16;98409.43;;;9.76;72.79
70256;BME280;57669;52.624;-1.688;2022-11-15T11:36:42;98414.07;;;9.10;74.15
70256;BME280;57669;52.624;-1.688;2022-11-15T11:39:16;98407.30;;;8.95;73.00
70256;BME280;57669;52.624;-1.688;2022-11-15T11:41:38;98415.98;;;9.26;73.45
70256;BME280;57669;52.624;-1.688;2022-11-15T11:44:01;98417.77;;;9.60;72.87
70256;BME280;57669;52.624;-1.688;2022-11-15T11:46:32;98418.39;;;9.95;72.31
70256;BME280;57669;52.624;-1.688;2022-11-15T11:48:50;98418.48;;;9.85;72.47
70256;BME280;57669;52.624;-1.688;2022-11-15T11:51:17;98432.03;;;9.62;72.98
70256;BME280;57669;52.624;-1.688;2022-11-15T11:53:42;98429.58;;;9.44;74.00
70256;BME280;57669;52.624;-1.688;2022-11-15T11:56:11;98435.72;;;9.58;74.30
70256;BME280;57669;52.624;-1.688;2022-11-15T11:58:34;98429.97;;;9.36;74.77
70256;BME280;57669;52.624;-1.688;2022-11-15T12:00:56;98428.78;;;9.38;74.77
70256;BME280;57669;52.624;-1.688;2022-11-15T12:03:26;98436.95;;;9.10;75.29
70256;BME280;57669;52.624;-1.688;2022-11-15T12:05:50;98438.60;;;8.77;76.40
70256;BME280;57669;52.624;-1.688;2022-11-15T12:08:22;98440.79;;;9.23;75.35
70256;BME280;57669;52.624;-1.688;2022-11-15T12:10:39;98426.71;;;9.02;76.16
70256;BME280;57669;52.624;-1.688;2022-11-15T12:13:07;98420.15;;;9.65;74.77
70256;BME280;57669;52.624;-1.688;2022-11-15T12:15:32;98397.28;;;9.37;74.53
70256;BME280;57669;52.624;-1.688;2022-11-15T12:17:55;98388.84;;;9.67;73.46
70256;BME280;57669;52.624;-1.688;2022-11-15T12:20:23;98384.08;;;9.70;73.26
70256;BME280;57669;52.624;-1.688;2022-11-15T12:22:55;98380.88;;;10.38;71.09
70256;BME280;57669;52.624;-1.688;2022-11-15T12:25:17;98379.06;;;10.30;70.52
70256;BME280;57669;52.624;-1.688;2022-11-15T12:27:41;98381.62;;;10.05;71.43
70256;BME280;57669;52.624;-1.688;2022-11-15T12:30:08;98386.35;;;9.19;73.20
70256;BME280;57669;52.624;-1.688;2022-11-15T12:32:32;98386.88;;;10.34;69.46
70256;BME280;57669;52.624;-1.688;2022-11-15T12:34:55;98384.60;;;10.84;69.31
70256;BME280;57669;52.624;-1.688;2022-11-15T12:47:22;98355.90;;;10.33;69.04
70256;BME280;57669;52.624;-1.688;2022-11-15T12:52:05;98320.53;;;10.75;68.14
70256;BME280;57669;52.624;-1.688;2022-11-15T12:59:38;98331.59;;;10.62;66.52
70256;BME280;57669;52.624;-1.688;2022-11-15T13:04:10;98352.80;;;10.54;65.22
70256;BME280;57669;52.624;-1.688;2022-11-15T13:06:38;98346.92;;;10.34;64.86
70256;BME280;57669;52.624;-1.688;2022-11-15T13:08:55;98318.97;;;10.28;65.19
70256;BME280;57669;52.624;-1.688;2022-11-15T13:13:46;98327.95;;;10.68;65.08
70256;BME280;57669;52.624;-1.688;2022-11-15T13:16:17;98330.54;;;11.39;63.50
70256;BME280;57669;52.624;-1.688;2022-11-15T13:18:40;98328.05;;;11.07;63.85
70256;BME280;57669;52.624;-1.688;2022-11-15T13:21:16;98333.15;;;10.93;64.17
70256;BME280;57669;52.624;-1.688;2022-11-15T13:23:29;98331.75;;;10.68;64.41
70256;BME280;57669;52.624;-1.688;2022-11-15T13:26:04;98335.17;;;10.70;65.91
70256;BME280;57669;52.624;-1.688;2022-11-15T13:28:27;98340.80;;;10.15;67.26
70256;BME280;57669;52.624;-1.688;2022-11-15T13:30:51;98345.48;;;10.29;67.50
70256;BME280;57669;52.624;-1.688;2022-11-15T13:33:16;98342.34;;;10.43;67.99
70256;BME280;57669;52.624;-1.688;2022-11-15T13:35:40;98343.93;;;10.21;69.03